Terminal Aerodrome Forecast
Issued by NWS Pocatello, ID

Home | Current Version | Previous Version | Text Only | Print | Product List | Glossary On
Versions: 1 2 3 4 5 6 7 8 9 10 11 12 13 14 15 16
032
FTUS45 KPIH 291720
TAFPIH
TAF
KPIH 291720Z 2918/3018 25008KT P6SM VCSH SCT040 OVC060
      TEMPO 2918/2920 OVC025
     FM292000 25011KT P6SM -SHRA VCTS BKN050CB OVC090
     FM300200 22008KT P6SM VCSH OVC080
     FM301700 01010KT P6SM VCSH OVC050=

USA.gov is the U.S. government's official web portal to all federal, state and local government web resources and services.